Bookmark and Share
Track history (hours):
 

Drifting buoy 41580

Last reported at 2014-Apr-17 02:30 UTC. Time now 2014-Apr-17 03:54 UTC.
Position N 22°48' W 062°31'.

NotesDate/timePositionNaut miles runAvg speedWind from/ knotsBaromVisibWave heightAir tempDewpointWater temp
2014-Apr-17 02:30N 22°48' W 062°31'1 0.6
2014-Apr-17 01:30N 22°49' W 062°31'0 0.6
2014-Apr-17 01:00N 22°49' W 062°30'0 0.6
2014-Apr-17 00:30N 22°49' W 062°30'0 0.6
2014-Apr-17 00:00N 22°49' W 062°30'1 0.6
2014-Apr-16 21:30N 22°49' W 062°28'0 0.6
2014-Apr-16 21:00N 22°49' W 062°28'0 0.5
2014-Apr-16 20:30N 22°49' W 062°28'0 0.6
2014-Apr-16 20:00N 22°49' W 062°27'0 0.5
2014-Apr-16 19:30N 22°50' W 062°27'0 0.6
2014-Apr-16 19:00N 22°50' W 062°27'1 0.5
2014-Apr-16 17:30N 22°50' W 062°26'0 0.4
2014-Apr-16 17:00N 22°50' W 062°26'1 0.4
2014-Apr-16 15:30N 22°51' W 062°25'0 0.4
2014-Apr-16 15:01N 22°51' W 062°25'1 0.4
2014-Apr-16 13:30N 22°51' W 062°25'0 0.4
2014-Apr-16 13:00N 22°51' W 062°25'0 0.5
2014-Apr-16 12:31N 22°51' W 062°24'0 0.4
2014-Apr-16 12:01N 22°51' W 062°24'0 0.4
2014-Apr-16 11:31N 22°51' W 062°24'0 0.4
2014-Apr-16 11:00N 22°51' W 062°24'0 0.4
2014-Apr-16 10:30N 22°51' W 062°23'0 0.4
2014-Apr-16 10:00N 22°51' W 062°23'0 0.3
2014-Apr-16 09:30N 22°51' W 062°23'0 0.4
2014-Apr-16 09:00N 22°51' W 062°23'1 0.3
2014-Apr-16 06:30N 22°52' W 062°22'0 0.4
2014-Apr-16 06:00N 22°52' W 062°22'0 0.2
2014-Apr-16 04:30N 22°52' W 062°21'0 0.3
2014-Apr-16 04:00N 22°52' W 062°21'0 0.2
2014-Apr-16 03:00N 22°52' W 062°21'0 0.2
2014-Apr-16 02:30N 22°52' W 062°21'0 0.3
2014-Apr-16 02:00N 22°52' W 062°21'0 0.2
2014-Apr-16 01:00N 22°52' W 062°21'0 0.4
2014-Apr-16 00:30N 22°52' W 062°21'0 0.3
2014-Apr-16 00:00N 22°52' W 062°20'0 0.4
2014-Apr-15 23:31N 22°51' W 062°20'0 0.5
2014-Apr-15 23:01N 22°51' W 062°20'0 0.4
2014-Apr-15 22:01N 22°51' W 062°20'0 0.5
2014-Apr-15 21:31N 22°51' W 062°19'0 0.5
2014-Apr-15 21:01N 22°51' W 062°19'0 0.4
2014-Apr-15 20:01N 22°51' W 062°19'1 0.5
2014-Apr-15 19:01N 22°51' W 062°18'2 0.5
2014-Apr-15 14:01N 22°51' W 062°16'1 0.4
2014-Apr-15 10:31N 22°51' W 062°14'0 0.6
2014-Apr-15 10:01N 22°51' W 062°14'0 0.4
2014-Apr-15 09:31N 22°51' W 062°14'0 0.6
2014-Apr-15 09:01N 22°51' W 062°13'1 0.5
2014-Apr-15 08:01N 22°51' W 062°13'0 0.5
2014-Apr-15 07:01N 22°51' W 062°12'0 0.5
2014-Apr-15 06:30N 22°51' W 062°12'0 0.5
2014-Apr-15 06:00N 22°52' W 062°12'2 0.4
2014-Apr-15 01:30N 22°53' W 062°10'1 0.2
2014-Apr-14 21:01N 22°53' W 062°09'1 0.3
2014-Apr-14 18:01N 22°52' W 062°09'2 0.4
2014-Apr-14 13:01N 22°52' W 062°06'0 0.2
2014-Apr-14 12:31N 22°52' W 062°06'0 0.3
2014-Apr-14 11:01N 22°52' W 062°06'0 0.4
2014-Apr-14 10:31N 22°52' W 062°06'1 0.3
2014-Apr-14 09:01N 22°52' W 062°05'2 0.3
2014-Apr-14 02:31N 22°52' W 062°03'0 0.2
2014-Apr-14 02:01N 22°52' W 062°03'0 0.1
2014-Apr-14 01:31N 22°52' W 062°03'0 0.3
2014-Apr-14 01:01N 22°51' W 062°03'1 0.3
2014-Apr-13 21:01N 22°50' W 062°02'0 0.6
2014-Apr-13 20:31N 22°50' W 062°02'0 0.5
2014-Apr-13 20:00N 22°50' W 062°02'5 0.5
2014-Apr-13 10:01N 22°47' W 061°57'0 0.3
2014-Apr-13 09:31N 22°47' W 061°57'0 0.3
2014-Apr-13 09:01N 22°47' W 061°57'0 0.2
2014-Apr-13 08:31N 22°47' W 061°57'0 0.4
2014-Apr-13 08:01N 22°47' W 061°57'0 0.2
2014-Apr-13 07:01N 22°47' W 061°57'0 0.2
2014-Apr-13 05:01N 22°47' W 061°57'1 0.3
2014-Apr-13 02:01N 22°46' W 061°57'0 0.4
2014-Apr-13 01:31N 22°46' W 061°57'0 0.5
2014-Apr-13 01:01N 22°45' W 061°57'0 0.5
2014-Apr-13 00:31N 22°45' W 061°57'0 0.6
2014-Apr-13 00:01N 22°45' W 061°57'2 0.7
2014-Apr-12 21:31N 22°43' W 061°56'0 0.8
2014-Apr-12 21:01N 22°43' W 061°56'2 0.8
2014-Apr-12 18:31N 22°41' W 061°54'0 0.6
2014-Apr-12 18:01N 22°41' W 061°54'0 0.7
2014-Apr-12 17:31N 22°41' W 061°54'0 0.6
2014-Apr-12 17:01N 22°41' W 061°54'1 0.6
2014-Apr-12 14:31N 22°40' W 061°52'0 0.5
2014-Apr-12 14:01N 22°40' W 061°52'2 0.4
2014-Apr-12 09:01N 22°39' W 061°50'0 0.2
2014-Apr-12 08:31N 22°39' W 061°50'0 0.1
2014-Apr-12 08:01N 22°39' W 061°50'0 0.2
2014-Apr-12 06:01N 22°39' W 061°50'2 0.4
2014-Apr-12 02:01N 22°37' W 061°51'0 0.6
2014-Apr-12 01:31N 22°37' W 061°51'0 0.7
2014-Apr-12 01:01N 22°36' W 061°51'2 0.8
2014-Apr-11 23:01N 22°35' W 061°51'3 1.0
2014-Apr-11 20:01N 22°32' W 061°50'5 0.8
2014-Apr-11 14:01N 22°28' W 061°47'1 0.6
2014-Apr-11 13:01N 22°28' W 061°46'0 0.7
2014-Apr-11 12:31N 22°27' W 061°46'1 0.6
2014-Apr-11 10:31N 22°27' W 061°45'0 0.5
2014-Apr-11 10:01N 22°27' W 061°45'1 0.7
2014-Apr-11 09:01N 22°26' W 061°44'1 0.7
2014-Apr-11 07:01N 22°25' W 061°43'0 0.7
2014-Apr-11 06:31N 22°25' W 061°43'0 0.7
2014-Apr-11 06:01N 22°25' W 061°42'3 0.8
2014-Apr-11 02:01N 22°22' W 061°40'0 0.9
2014-Apr-11 01:31N 22°22' W 061°40'0 0.9
2014-Apr-11 01:01N 22°22' W 061°39'2 1.0
2014-Apr-10 23:01N 22°20' W 061°38'3 1.0
2014-Apr-10 20:01N 22°18' W 061°36'1 1.0
2014-Apr-10 18:31N 22°17' W 061°34'0 0.8
2014-Apr-10 18:01N 22°17' W 061°34'2 0.7
2014-Apr-10 15:01N 22°16' W 061°32'3 0.5
2014-Apr-10 09:01N 22°14' W 061°29'1 0.7
2014-Apr-10 07:31N 22°13' W 061°28'0 0.7
2014-Apr-10 07:01N 22°13' W 061°28'1 0.7
2014-Apr-10 06:01N 22°12' W 061°28'2 0.7
2014-Apr-10 03:01N 22°11' W 061°26'0 0.7
2014-Apr-10 02:31N 22°11' W 061°26'0 0.7
2014-Apr-10 02:01N 22°10' W 061°26'3 0.6
2014-Apr-09 22:01N 22°09' W 061°23'1 0.7
2014-Apr-09 20:30N 22°08' W 061°23'0 0.8
2014-Apr-09 20:01N 22°08' W 061°22'1 0.6
2014-Apr-09 19:01N 22°08' W 061°22'1 0.7
2014-Apr-09 17:01N 22°07' W 061°20'5 0.5
2014-Apr-09 07:30N 22°06' W 061°16'0 0.4
2014-Apr-09 07:00N 22°05' W 061°15'0 0.4
2014-Apr-09 06:01N 22°05' W 061°15'0 0.5
2014-Apr-09 05:31N 22°05' W 061°15'1 0.5
2014-Apr-09 02:31N 22°05' W 061°13'0 0.5
2014-Apr-09 02:01N 22°05' W 061°13'0 0.4
2014-Apr-09 01:01N 22°05' W 061°13'0 0.4
2014-Apr-09 00:31N 22°05' W 061°12'0 0.4
2014-Apr-09 00:01N 22°05' W 061°12'1 0.4
2014-Apr-08 20:31N 22°06' W 061°11'0 0.4
2014-Apr-08 20:01N 22°06' W 061°11'0 0.3
2014-Apr-08 19:00N 22°06' W 061°10'0 0.3
2014-Apr-08 17:31N 22°06' W 061°10'0 0.3
2014-Apr-08 17:01N 22°06' W 061°10'1 0.4
2014-Apr-08 14:31N 22°06' W 061°09'0 0.3
2014-Apr-08 14:01N 22°06' W 061°09'2 0.4
2014-Apr-08 07:31N 22°07' W 061°07'0 0.4
2014-Apr-08 07:01N 22°07' W 061°07'0 0.4
2014-Apr-08 06:01N 22°07' W 061°06'0 0.3
2014-Apr-08 05:31N 22°07' W 061°06'0 0.3
2014-Apr-08 05:01N 22°08' W 061°06'0 0.3
2014-Apr-08 04:31N 22°08' W 061°06'0 0.4
2014-Apr-08 04:01N 22°08' W 061°06'1 0.3
2014-Apr-08 02:01N 22°08' W 061°05'0 0.4
2014-Apr-08 01:01N 22°08' W 061°05'0 0.3
2014-Apr-08 00:31N 22°08' W 061°05'0 0.5
2014-Apr-07 23:31N 22°09' W 061°04'0 0.5
2014-Apr-07 23:01N 22°09' W 061°04'1 0.4
2014-Apr-07 21:31N 22°09' W 061°04'0 0.5
2014-Apr-07 21:01N 22°10' W 061°04'0 0.4
2014-Apr-07 20:31N 22°10' W 061°04'0 0.4
2014-Apr-07 20:01N 22°10' W 061°04'0 0.2
2014-Apr-07 17:30N 22°10' W 061°04'0 0.2
2014-Apr-07 17:00N 22°10' W 061°04'0 0.3
2014-Apr-07 16:01N 22°10' W 061°03'1 0.3
2014-Apr-07 14:00N 22°11' W 061°03'1 0.4
2014-Apr-07 10:31N 22°12' W 061°02'0 0.6
2014-Apr-07 10:01N 22°12' W 061°02'0 0.5
2014-Apr-07 09:31N 22°12' W 061°02'0 0.6
2014-Apr-07 09:00N 22°13' W 061°02'0 0.5
2014-Apr-07 08:30N 22°13' W 061°02'0 0.5
2014-Apr-07 08:01N 22°13' W 061°02'  

Dump ship's entire track history

sailing weather and tide predictions

Buoy 41580